Time;durP1;ratioP1;P1;durP2;ratioP2;P2;SDS_P1;SDS_P2;PMS_P1;PMS_P2;Temp;Humidity;BMP_temperature;BMP_pressure;BME280_temperature;BME280_humidity;BME280_pressure;Samples;Min_cycle;Max_cycle;Signal;HPM_P1;HPM_P2
2023/09/09 00:01:54;;;;;;;7.93;7.10;;;;;;;19.40;88.68;100964.41;5064593;28;20044;-83
2023/09/09 00:04:21;;;;;;;9.43;6.60;;;;;;;19.40;89.07;100969.72;5037583;28;20681;-81
2023/09/09 00:06:47;;;;;;;7.88;6.05;;;;;;;19.30;88.90;100961.25;5033660;28;20399;-84
2023/09/09 00:09:15;;;;;;;6.63;5.97;;;;;;;19.26;89.57;100961.47;5048961;28;20114;-82
2023/09/09 00:11:41;;;;;;;9.07;7.32;;;;;;;19.22;89.71;100967.81;5065644;28;20072;-84
2023/09/09 00:14:08;;;;;;;10.27;7.55;;;;;;;19.20;89.80;100959.91;5032342;28;20193;-83
2023/09/09 00:16:35;;;;;;;7.05;6.35;;;;;;;19.19;89.91;100960.84;5032432;28;20056;-84
2023/09/09 00:19:02;;;;;;;17.65;7.95;;;;;;;19.19;90.34;100960.84;5031165;28;20080;-83
2023/09/09 00:21:29;;;;;;;7.80;7.00;;;;;;;19.11;90.28;100953.19;5032990;28;20442;-83
2023/09/09 00:23:58;;;;;;;7.88;6.10;;;;;;;19.10;90.22;100962.06;5047979;28;20132;-84
2023/09/09 00:26:27;;;;;;;6.95;6.35;;;;;;;19.08;91.06;100952.44;5037435;28;20081;-83
2023/09/09 00:28:54;;;;;;;10.68;6.40;;;;;;;19.08;90.27;100949.78;5033492;28;20044;-81
2023/09/09 00:31:21;;;;;;;6.70;6.00;;;;;;;19.04;90.71;100949.03;5049284;28;20664;-82
2023/09/09 00:33:47;;;;;;;7.53;5.95;;;;;;;19.04;90.10;100953.50;5030417;28;20579;-82
2023/09/09 00:36:15;;;;;;;11.35;6.85;;;;;;;19.01;90.05;100946.53;5033815;28;20040;-83
2023/09/09 00:38:41;;;;;;;9.32;5.90;;;;;;;19.00;90.18;100944.78;5048143;28;20067;-84
2023/09/09 00:41:13;;;;;;;6.80;6.13;;;;;;;18.99;90.04;100949.25;5032963;28;20044;-82
2023/09/09 00:43:40;;;;;;;7.00;6.28;;;;;;;18.96;89.96;100937.88;5048186;28;20801;-83
2023/09/09 00:46:08;;;;;;;7.38;6.05;;;;;;;18.93;90.72;100943.28;5030603;28;20045;-83
2023/09/09 00:48:37;;;;;;;9.40;6.80;;;;;;;18.89;90.59;100945.22;5034763;28;20134;-81
2023/09/09 00:51:05;;;;;;;10.75;5.85;;;;;;;18.86;90.47;100942.63;5028388;28;20178;-84
2023/09/09 00:53:34;;;;;;;9.52;5.93;;;;;;;18.84;90.49;100941.84;5048368;28;20048;-83
2023/09/09 00:56:02;;;;;;;8.65;5.85;;;;;;;18.84;90.23;100945.34;5031456;28;20087;-82
2023/09/09 00:58:31;;;;;;;7.07;6.13;;;;;;;18.81;90.54;100939.28;5037561;28;20074;-83
2023/09/09 01:01:02;;;;;;;7.97;6.63;;;;;;;18.76;91.02;100946.56;5036644;28;20463;-85
2023/09/09 01:03:31;;;;;;;6.63;5.95;;;;;;;18.70;91.22;100939.72;5057856;28;20309;-82
2023/09/09 01:05:59;;;;;;;10.15;6.40;;;;;;;18.66;91.68;100936.31;5065816;28;20044;-84
2023/09/09 01:08:31;;;;;;;7.43;6.45;;;;;;;18.66;92.00;100938.13;5039681;28;20046;-81
2023/09/09 01:10:59;;;;;;;11.57;6.65;;;;;;;18.63;91.90;100928.50;5045130;28;20042;-85
2023/09/09 01:13:27;;;;;;;6.57;5.80;;;;;;;18.59;92.21;100931.31;5029036;28;20045;-84
2023/09/09 01:15:54;;;;;;;7.15;6.55;;;;;;;18.55;92.52;100933.22;5011422;28;20419;-85
2023/09/09 01:18:21;;;;;;;7.10;6.28;;;;;;;18.52;93.32;100934.22;5027698;28;20384;-84
2023/09/09 01:21:02;;;;;;;7.00;6.20;;;;;;;18.45;93.73;100935.34;5032967;28;20060;-83
2023/09/09 01:23:29;;;;;;;6.50;5.72;;;;;;;18.40;93.46;100934.66;5013051;28;20041;-83
2023/09/09 01:25:56;;;;;;;7.70;7.03;;;;;;;18.41;93.54;100932.84;5008215;28;20058;-84
2023/09/09 01:28:23;;;;;;;7.50;6.80;;;;;;;18.39;93.23;100935.56;5007661;28;20053;-82
2023/09/09 01:30:50;;;;;;;7.57;6.78;;;;;;;18.38;93.62;100944.44;5012489;28;20050;-84
2023/09/09 01:33:18;;;;;;;7.60;6.05;;;;;;;18.36;93.85;100935.69;5012736;28;20604;-81
2023/09/09 01:35:46;;;;;;;5.85;5.35;;;;;;;18.35;93.65;100937.50;5027768;28;20107;-85
2023/09/09 01:38:14;;;;;;;7.68;6.22;;;;;;;18.34;93.89;100938.41;5026762;28;20649;-83
2023/09/09 01:40:41;;;;;;;8.80;6.82;;;;;;;18.33;93.76;100938.47;5012005;28;20052;-83
2023/09/09 01:43:08;;;;;;;8.98;6.75;;;;;;;18.30;93.95;100934.16;5011221;28;20053;-84
2023/09/09 01:45:35;;;;;;;10.30;6.60;;;;;;;18.29;94.62;100929.75;5025529;28;20056;-83
2023/09/09 01:48:01;;;;;;;9.88;6.63;;;;;;;18.28;94.40;100930.66;5009304;28;20076;-81
2023/09/09 01:50:28;;;;;;;9.90;6.72;;;;;;;18.26;94.20;100929.84;5024393;28;20053;-81
2023/09/09 01:52:57;;;;;;;6.43;5.82;;;;;;;18.28;94.36;100927.16;5029203;28;20133;-85
2023/09/09 01:55:24;;;;;;;8.90;6.20;;;;;;;18.28;93.98;100928.03;5010134;28;20068;-82
2023/09/09 01:57:51;;;;;;;8.88;5.68;;;;;;;18.27;93.86;100933.38;5026960;28;20115;-85
2023/09/09 02:00:18;;;;;;;9.43;6.97;;;;;;;18.24;94.14;100925.53;5027544;28;20041;-84
2023/09/09 02:02:44;;;;;;;9.40;6.75;;;;;;;18.21;94.15;100933.59;5024637;28;20424;-85
2023/09/09 02:05:13;;;;;;;6.72;6.03;;;;;;;18.17;94.42;100928.41;5012960;28;20060;-82
2023/09/09 02:07:40;;;;;;;9.05;6.22;;;;;;;18.14;94.50;100927.66;5027386;28;20057;-84
2023/09/09 02:10:07;;;;;;;7.30;6.45;;;;;;;18.08;94.91;100933.16;5028146;28;20073;-84
2023/09/09 02:12:34;;;;;;;6.95;6.05;;;;;;;18.05;94.68;100926.19;5028924;28;20684;-81
2023/09/09 02:15:00;;;;;;;7.32;6.22;;;;;;;18.02;95.13;100931.63;5007919;28;20045;-84
2023/09/09 02:17:27;;;;;;;9.27;6.50;;;;;;;18.02;95.09;100932.47;5045523;28;20045;-86
2023/09/09 02:19:57;;;;;;;6.32;5.72;;;;;;;18.01;94.75;100932.53;5012233;28;20045;-85
2023/09/09 02:22:24;;;;;;;6.90;6.07;;;;;;;17.98;95.67;100932.66;5002302;28;20080;-82
2023/09/09 02:24:56;;;;;;;12.18;6.45;;;;;;;17.94;96.06;100925.72;5008132;28;20077;-84
2023/09/09 02:27:24;;;;;;;8.27;6.47;;;;;;;17.91;96.35;100936.38;5027719;28;20455;-84
2023/09/09 02:29:51;;;;;;;9.02;7.32;;;;;;;17.89;96.65;100925.84;5029307;28;20046;-83
2023/09/09 02:32:19;;;;;;;8.90;6.05;;;;;;;17.81;97.31;100926.13;5010483;28;20818;-82
2023/09/09 02:34:46;;;;;;;10.93;6.38;;;;;;;17.84;97.06;100922.50;5022322;28;20141;-86
2023/09/09 02:37:23;;;;;;;7.22;6.50;;;;;;;17.80;97.24;100918.25;5040800;28;20045;-83
2023/09/09 02:39:51;;;;;;;8.20;5.82;;;;;;;17.78;97.04;100922.72;5027698;28;20091;-84
2023/09/09 02:42:24;;;;;;;7.00;5.85;;;;;;;17.77;97.39;100919.22;5025252;28;20071;-83
2023/09/09 02:44:51;;;;;;;8.75;7.05;;;;;;;17.74;97.46;100914.00;5008997;28;20136;-84
2023/09/09 02:47:18;;;;;;;6.05;5.55;;;;;;;17.69;97.80;100914.19;5009655;28;20504;-84
2023/09/09 02:49:49;;;;;;;9.07;6.55;;;;;;;17.66;97.75;100916.06;5025196;28;20065;-84
2023/09/09 02:52:16;;;;;;;9.65;5.63;;;;;;;17.64;98.01;100923.22;5024948;28;20045;-84
2023/09/09 02:54:43;;;;;;;7.22;6.43;;;;;;;17.60;98.50;100917.13;5024477;28;20507;-84
2023/09/09 02:57:09;;;;;;;10.55;6.68;;;;;;;17.56;98.78;100917.28;5027364;28;20068;-84
2023/09/09 02:59:37;;;;;;;6.43;5.80;;;;;;;17.54;98.71;100920.00;5007280;28;20506;-84
2023/09/09 03:02:04;;;;;;;9.35;6.93;;;;;;;17.51;98.51;100913.03;5008978;28;20053;-84
2023/09/09 03:04:31;;;;;;;8.63;6.68;;;;;;;17.52;98.59;100911.22;5027434;28;20045;-81
2023/09/09 03:07:01;;;;;;;6.65;6.05;;;;;;;17.50;98.68;100910.44;5014370;28;20106;-81
2023/09/09 03:09:33;;;;;;;8.55;5.60;;;;;;;17.45;99.17;100907.91;5046129;28;20045;-84
2023/09/09 03:12:01;;;;;;;7.40;6.63;;;;;;;17.44;99.31;100913.28;5062025;28;20110;-81
2023/09/09 03:14:30;;;;;;;6.30;5.38;;;;;;;17.42;99.14;100907.19;5025837;28;20052;-84
2023/09/09 03:17:00;;;;;;;6.50;5.80;;;;;;;17.43;99.31;100911.53;5044762;28;20072;-84
2023/09/09 03:19:26;;;;;;;6.53;5.78;;;;;;;17.44;98.93;100911.50;5034223;28;20135;-84
2023/09/09 03:21:53;;;;;;;7.85;6.50;;;;;;;17.44;99.21;100910.63;5031309;28;20055;-84
2023/09/09 03:24:19;;;;;;;6.80;6.00;;;;;;;17.43;99.07;100908.88;5045116;28;20059;-84
2023/09/09 03:26:46;;;;;;;8.00;7.03;;;;;;;17.47;99.01;100911.41;5035608;28;20140;-83
2023/09/09 03:29:13;;;;;;;6.90;6.13;;;;;;;17.47;98.41;100910.50;5045115;28;20049;-83
2023/09/09 03:31:39;;;;;;;8.63;6.90;;;;;;;17.47;98.62;100907.88;5051548;28;20818;-80
2023/09/09 03:34:06;;;;;;;6.75;6.13;;;;;;;17.46;98.18;100904.38;5023981;28;20049;-83
2023/09/09 03:36:35;;;;;;;6.35;5.68;;;;;;;17.49;97.99;100906.91;5029681;28;20053;-83
2023/09/09 03:39:03;;;;;;;6.70;6.05;;;;;;;17.51;97.39;100912.16;5030446;28;20268;-83
2023/09/09 03:41:31;;;;;;;7.00;6.18;;;;;;;17.53;97.05;100911.19;5030043;28;20144;-83
2023/09/09 03:43:58;;;;;;;7.85;5.95;;;;;;;17.55;96.93;100918.19;5045049;28;20994;-82
2023/09/09 03:46:24;;;;;;;7.28;6.03;;;;;;;17.52;96.78;100908.56;5044597;28;20047;-84
2023/09/09 03:48:51;;;;;;;9.38;6.75;;;;;;;17.52;96.87;100905.94;5032900;28;20049;-84
2023/09/09 03:51:19;;;;;;;6.47;5.88;;;;;;;17.52;96.64;100905.94;5029322;28;20098;-85
2023/09/09 03:53:46;;;;;;;12.68;6.03;;;;;;;17.49;96.46;100911.34;5043138;28;20049;-83
2023/09/09 03:56:13;;;;;;;6.95;6.30;;;;;;;17.48;96.40;100907.84;5028325;28;20182;-83
2023/09/09 03:58:40;;;;;;;6.20;5.70;;;;;;;17.47;96.24;100899.91;5032054;28;20053;-84
2023/09/09 04:01:09;;;;;;;7.05;5.72;;;;;;;17.44;96.17;100906.22;5045630;28;20400;-85
2023/09/09 04:03:37;;;;;;;6.32;5.72;;;;;;;17.42;96.56;100905.38;5046258;28;20474;-85
2023/09/09 04:06:10;;;;;;;10.57;6.28;;;;;;;17.40;96.52;100909.84;5059983;28;20036;-84
2023/09/09 04:08:39;;;;;;;7.25;6.18;;;;;;;17.40;96.58;100915.16;5027417;28;20508;-82
2023/09/09 04:11:07;;;;;;;6.13;5.53;;;;;;;17.35;96.42;100914.44;5029826;28;20400;-83
2023/09/09 04:13:37;;;;;;;7.78;6.63;;;;;;;17.30;96.87;100921.66;5042875;28;20049;-82
2023/09/09 04:16:07;;;;;;;9.32;5.45;;;;;;;17.25;97.16;100928.88;5027670;28;20064;-85
2023/09/09 04:18:33;;;;;;;8.02;6.32;;;;;;;17.20;97.43;100921.09;5035732;28;20045;-82
2023/09/09 04:21:00;;;;;;;8.38;6.13;;;;;;;17.14;97.37;100916.88;5030409;28;20116;-84
2023/09/09 04:23:27;;;;;;;7.20;5.57;;;;;;;17.13;97.45;100925.72;5043834;28;20041;-85
2023/09/09 04:25:54;;;;;;;8.82;5.97;;;;;;;17.10;97.48;100925.81;5023018;28;20056;-84
2023/09/09 04:28:20;;;;;;;9.70;7.07;;;;;;;17.07;97.54;100925.91;5046364;28;20049;-83
2023/09/09 04:30:47;;;;;;;7.35;6.07;;;;;;;17.05;97.41;100925.09;5054441;28;20462;-82
2023/09/09 04:33:14;;;;;;;7.47;6.40;;;;;;;17.00;97.54;100919.09;5048583;28;20140;-84
2023/09/09 04:35:42;;;;;;;9.35;6.70;;;;;;;16.98;98.00;100920.94;5046187;28;20041;-85
2023/09/09 04:38:10;;;;;;;6.72;6.03;;;;;;;16.95;97.76;100921.03;5066875;28;20102;-86
2023/09/09 04:40:41;;;;;;;8.63;5.93;;;;;;;16.94;97.78;100921.94;5049694;28;20100;-84
2023/09/09 04:43:08;;;;;;;7.85;7.05;;;;;;;16.89;98.00;100918.53;5048145;28;20510;-83
2023/09/09 04:45:35;;;;;;;11.85;6.00;;;;;;;16.86;97.98;100914.22;5046090;28;20052;-84
2023/09/09 04:48:02;;;;;;;6.93;6.05;;;;;;;16.86;98.21;100923.00;5051302;28;20045;-84
2023/09/09 04:50:29;;;;;;;7.32;6.28;;;;;;;16.86;98.02;100919.50;5027188;28;20049;-85
2023/09/09 04:52:57;;;;;;;8.73;6.22;;;;;;;16.83;98.25;100916.94;5052127;28;20049;-83
2023/09/09 04:55:24;;;;;;;11.35;6.28;;;;;;;16.83;98.05;100922.22;5059906;28;20447;-84
2023/09/09 04:57:51;;;;;;;7.90;6.30;;;;;;;16.86;97.78;100925.63;5054164;28;20059;-83
2023/09/09 05:00:17;;;;;;;10.00;7.05;;;;;;;16.84;97.98;100916.03;5056485;28;20207;-83
2023/09/09 05:02:44;;;;;;;9.27;6.32;;;;;;;16.85;97.99;100921.25;5034282;28;20052;-84
2023/09/09 05:05:11;;;;;;;7.38;6.57;;;;;;;16.85;97.72;100921.25;5035798;28;20049;-83
2023/09/09 05:07:37;;;;;;;8.45;6.40;;;;;;;16.84;97.99;100924.84;5029402;28;20523;-84
2023/09/09 05:10:06;;;;;;;9.27;6.57;;;;;;;16.83;97.99;100923.09;5025426;28;20042;-84
2023/09/09 05:12:35;;;;;;;7.55;6.55;;;;;;;16.87;97.71;100919.44;5012446;28;20083;-84
2023/09/09 05:15:02;;;;;;;10.15;6.40;;;;;;;16.86;97.82;100927.44;5015708;28;20141;-83
2023/09/09 05:17:29;;;;;;;8.05;6.32;;;;;;;16.84;97.98;100927.47;5033404;28;20135;-85
2023/09/09 05:19:55;;;;;;;6.60;5.88;;;;;;;16.86;97.64;100922.16;5015637;28;20046;-84
2023/09/09 05:22:22;;;;;;;9.30;6.68;;;;;;;16.85;97.77;100926.53;5031739;28;20073;-85
2023/09/09 05:24:48;;;;;;;8.40;6.28;;;;;;;16.87;97.65;100926.53;5014701;28;20041;-83
2023/09/09 05:27:15;;;;;;;8.80;6.90;;;;;;;16.90;97.42;100923.81;5045523;28;20042;-84
2023/09/09 05:29:43;;;;;;;6.70;5.35;;;;;;;16.90;97.43;100931.75;5016074;28;20400;-84
2023/09/09 05:32:09;;;;;;;8.65;6.65;;;;;;;16.91;97.29;100932.59;5006477;28;20058;-81
2023/09/09 05:34:36;;;;;;;9.15;6.25;;;;;;;16.94;96.99;100927.22;5019794;28;20045;-84
2023/09/09 05:37:08;;;;;;;7.32;5.32;;;;;;;16.98;96.74;100934.16;5013009;28;20080;-84
2023/09/09 05:39:35;;;;;;;7.25;5.93;;;;;;;17.03;96.72;100938.38;4998693;28;20065;-85
2023/09/09 05:42:02;;;;;;;6.50;5.90;;;;;;;17.07;96.40;100927.72;5026529;28;20120;-84
2023/09/09 05:44:31;;;;;;;6.93;6.22;;;;;;;17.13;96.00;100930.13;5032665;28;20048;-85
2023/09/09 05:46:58;;;;;;;10.73;5.70;;;;;;;17.23;95.57;100936.03;5039377;28;20049;-83
2023/09/09 05:49:27;;;;;;;7.28;6.07;;;;;;;17.31;95.04;100941.91;5013240;28;20490;-84
2023/09/09 05:51:53;;;;;;;7.63;6.72;;;;;;;17.35;94.69;100936.50;5026793;28;20505;-84
2023/09/09 05:54:21;;;;;;;9.27;6.05;;;;;;;17.42;94.26;100945.09;5032082;28;20061;-83
2023/09/09 05:56:47;;;;;;;11.65;6.55;;;;;;;17.48;93.90;100941.34;5033709;28;20046;-83
2023/09/09 05:59:14;;;;;;;8.75;5.65;;;;;;;17.56;93.64;100938.47;5027943;28;20049;-83
2023/09/09 06:01:40;;;;;;;6.63;6.00;;;;;;;17.65;93.49;100938.16;5016353;28;20096;-85
2023/09/09 06:04:16;;;;;;;7.10;6.40;;;;;;;17.73;92.95;100949.38;5039737;28;20071;-83
2023/09/09 06:06:45;;;;;;;7.68;5.28;;;;;;;17.80;92.65;100944.72;5031348;28;20064;-85
2023/09/09 06:09:12;;;;;;;7.22;6.28;;;;;;;17.83;92.39;100948.13;5034797;28;20065;-84
2023/09/09 06:11:41;;;;;;;5.75;5.15;;;;;;;17.96;91.94;100951.22;5033140;28;20399;-80
2023/09/09 06:14:08;;;;;;;9.13;5.38;;;;;;;18.06;91.54;100953.56;5051804;28;20414;-81
2023/09/09 06:16:35;;;;;;;6.95;5.15;;;;;;;18.12;91.01;100953.34;5038198;28;20048;-84
2023/09/09 06:19:01;;;;;;;7.47;5.70;;;;;;;18.20;90.71;100956.59;5054369;28;20053;-84
2023/09/09 06:21:30;;;;;;;7.65;5.28;;;;;;;18.34;90.13;100956.06;5062630;28;20090;-84
2023/09/09 06:23:57;;;;;;;7.63;5.32;;;;;;;18.46;89.38;100952.09;5057663;28;20574;-83
2023/09/09 06:26:24;;;;;;;8.85;5.43;;;;;;;18.57;88.83;100955.22;5049217;28;20042;-85
2023/09/09 06:28:51;;;;;;;7.85;5.25;;;;;;;18.74;88.41;100959.03;5049679;28;20479;-83
2023/09/09 06:31:18;;;;;;;7.20;5.88;;;;;;;18.95;87.62;100958.22;5050330;28;20648;-83
2023/09/09 06:33:44;;;;;;;7.03;5.60;;;;;;;19.23;85.68;100959.78;5055326;28;20049;-83
2023/09/09 06:36:11;;;;;;;7.97;5.72;;;;;;;19.89;84.59;100953.53;5041086;28;20059;-83
2023/09/09 06:38:38;;;;;;;6.32;5.60;;;;;;;23.53;65.50;100952.16;5054212;28;20058;-85
2023/09/09 06:41:05;;;;;;;5.70;5.20;;;;;;;25.88;51.53;100944.53;5034197;28;20048;-86
2023/09/09 06:43:31;;;;;;;6.82;5.20;;;;;;;27.01;47.88;100950.88;5046009;28;20045;-84
2023/09/09 06:45:59;;;;;;;8.07;5.43;;;;;;;27.71;46.13;100957.28;5044627;28;20672;-84
2023/09/09 06:48:26;;;;;;;5.22;4.80;;;;;;;28.74;44.42;100958.31;5042011;28;20051;-83
2023/09/09 06:50:53;;;;;;;4.97;4.57;;;;;;;29.34;42.81;100953.38;5054585;28;20067;-83
2023/09/09 06:53:22;;;;;;;5.82;5.03;;;;;;;29.23;42.35;100960.63;5056352;28;20418;-82
2023/09/09 06:55:49;;;;;;;8.35;4.75;;;;;;;29.60;41.18;100961.13;5035307;28;20053;-82
2023/09/09 06:58:15;;;;;;;9.63;5.13;;;;;;;29.45;41.33;100967.81;5054671;28;20044;-84
2023/09/09 07:00:53;;;;;;;6.75;5.38;;;;;;;29.06;41.90;100962.91;5019464;28;20040;-82
2023/09/09 07:03:22;;;;;;;5.32;4.88;;;;;;;29.03;42.47;100969.41;5069939;28;20052;-84
2023/09/09 07:05:50;;;;;;;7.22;4.60;;;;;;;29.51;41.47;100968.13;5072979;28;20052;-84
2023/09/09 07:08:17;;;;;;;6.20;4.75;;;;;;;30.01;40.28;100963.97;5047295;28;20060;-83
2023/09/09 07:10:52;;;;;;;5.03;4.60;;;;;;;30.47;39.31;100967.22;5036522;28;20044;-83
2023/09/09 07:13:23;;;;;;;5.35;4.78;;;;;;;31.04;37.98;100969.38;5053415;28;20044;-84
2023/09/09 07:15:54;;;;;;;5.38;4.80;;;;;;;31.59;37.48;100972.41;5037992;28;20053;-85
2023/09/09 07:18:22;;;;;;;7.00;5.05;;;;;;;31.43;37.19;100975.72;5045957;28;20079;-84
2023/09/09 07:20:50;;;;;;;5.80;4.25;;;;;;;31.60;37.00;100971.44;5034600;28;20044;-82
2023/09/09 07:23:18;;;;;;;8.63;4.78;;;;;;;32.12;36.40;100971.06;5036553;28;20658;-81
2023/09/09 07:25:46;;;;;;;5.38;4.88;;;;;;;32.34;36.35;100974.44;5051439;28;20124;-84
2023/09/09 07:28:13;;;;;;;4.63;4.15;;;;;;;32.57;35.86;100974.91;5050763;28;20051;-84
2023/09/09 07:30:39;;;;;;;5.72;5.15;;;;;;;32.83;35.17;100968.81;5055144;28;20143;-84
2023/09/09 07:33:06;;;;;;;6.15;4.47;;;;;;;32.59;35.04;100972.91;5039358;28;20490;-84
2023/09/09 07:35:35;;;;;;;4.70;4.15;;;;;;;33.14;34.67;100976.59;5034678;28;20045;-84
2023/09/09 07:38:06;;;;;;;5.63;4.28;;;;;;;33.57;34.30;100982.28;5039273;28;20052;-84
2023/09/09 07:40:32;;;;;;;4.90;3.92;;;;;;;33.56;34.07;100973.28;5059109;28;20396;-84
2023/09/09 07:43:00;;;;;;;5.63;4.07;;;;;;;33.04;34.54;100984.81;5056630;28;20048;-84
2023/09/09 07:45:27;;;;;;;5.97;4.78;;;;;;;33.70;34.46;100981.88;5036783;28;20052;-84
2023/09/09 07:47:54;;;;;;;4.80;3.90;;;;;;;33.78;34.06;100987.34;5028746;28;20059;-81
2023/09/09 07:50:20;;;;;;;5.20;4.70;;;;;;;34.05;33.46;100980.97;5032896;28;20581;-82
2023/09/09 07:52:47;;;;;;;4.70;4.30;;;;;;;33.47;34.23;100985.94;5038596;28;20071;-84
2023/09/09 07:55:13;;;;;;;5.15;4.75;;;;;;;33.18;34.08;100985.28;5056687;28;20044;-85
2023/09/09 07:57:40;;;;;;;4.32;3.90;;;;;;;33.60;34.47;100990.97;5042007;28;20399;-82
2023/09/09 08:00:08;;;;;;;5.38;4.55;;;;;;;33.79;33.90;100983.63;5032733;28;20076;-85
2023/09/09 08:02:38;;;;;;;4.95;4.50;;;;;;;34.14;33.40;100981.88;5033105;28;20202;-82
2023/09/09 08:05:06;;;;;;;4.82;4.30;;;;;;;34.20;34.02;100991.25;5032166;28;20680;-84
2023/09/09 08:07:33;;;;;;;5.03;4.30;;;;;;;34.78;33.10;100984.22;5041559;28;20115;-84
2023/09/09 08:10:03;;;;;;;8.95;4.40;;;;;;;34.94;32.51;100986.16;5016186;28;20061;-82
2023/09/09 08:12:29;;;;;;;5.05;4.55;;;;;;;35.15;32.45;100991.16;5035786;28;20140;-84
2023/09/09 08:15:08;;;;;;;4.18;3.88;;;;;;;36.02;31.15;100990.72;5030420;28;20050;-85
2023/09/09 08:17:35;;;;;;;5.88;4.55;;;;;;;36.26;30.84;101005.31;5014447;28;20091;-83
2023/09/09 08:20:06;;;;;;;5.15;4.25;;;;;;;35.92;31.15;101004.50;5030529;28;20103;-83
2023/09/09 08:22:35;;;;;;;5.13;4.35;;;;;;;35.43;31.99;100996.34;5029529;28;20057;-83
2023/09/09 08:25:02;;;;;;;3.65;3.45;;;;;;;35.43;31.81;100996.34;5032146;28;20045;-83
2023/09/09 08:27:29;;;;;;;4.72;4.05;;;;;;;35.67;31.71;100998.22;5033906;28;20046;-85
2023/09/09 08:29:56;;;;;;;3.83;3.53;;;;;;;35.92;30.87;100995.50;5027518;28;20125;-84
2023/09/09 08:32:23;;;;;;;4.65;4.10;;;;;;;35.97;31.17;100998.56;5012484;28;20030;-83
2023/09/09 08:34:54;;;;;;;4.20;3.90;;;;;;;36.19;30.89;100998.84;5028158;28;20049;-85
2023/09/09 08:37:21;;;;;;;4.88;4.00;;;;;;;36.62;30.08;100996.69;5018453;28;20076;-80
2023/09/09 08:39:54;;;;;;;4.53;4.13;;;;;;;36.63;30.66;100997.53;5026536;28;20145;-84
2023/09/09 08:42:31;;;;;;;;;;;;;;;36.74;30.17;101000.72;5014113;28;20045;-84
2023/09/09 08:45:42;;;;;;;6.80;3.78;;;;;;;36.66;30.32;101008.09;5029849;28;20827;-83
2023/09/09 08:48:09;;;;;;;4.40;4.00;;;;;;;36.61;31.13;101002.31;5015127;28;20160;-84
2023/09/09 08:50:39;;;;;;;4.55;4.10;;;;;;;36.00;31.25;100994.66;5013821;28;20355;-81
2023/09/09 08:53:07;;;;;;;3.75;3.50;;;;;;;35.92;31.88;100993.63;5025573;28;20046;-80
2023/09/09 08:55:34;;;;;;;6.63;4.45;;;;;;;36.20;30.93;101001.38;5028403;28;20898;-84
2023/09/09 08:58:01;;;;;;;3.78;3.58;;;;;;;36.27;31.86;100996.13;5025753;28;20053;-84
2023/09/09 09:00:34;;;;;;;3.75;3.55;;;;;;;36.85;30.44;100996.78;5012736;28;20057;-83
2023/09/09 09:03:02;;;;;;;6.60;4.10;;;;;;;36.46;30.70;101005.78;5021364;28;20065;-83
2023/09/09 09:05:36;;;;;;;4.22;3.92;;;;;;;36.24;30.35;100999.16;5017724;28;20706;-84
2023/09/09 09:08:04;;;;;;;4.63;4.28;;;;;;;36.07;30.64;101001.94;5035452;28;20137;-84
2023/09/09 09:10:31;;;;;;;4.50;3.63;;;;;;;36.00;31.02;100997.38;5017021;28;20057;-84
2023/09/09 09:12:58;;;;;;;3.80;3.45;;;;;;;36.60;30.36;100996.03;5036214;28;20146;-83
2023/09/09 09:15:25;;;;;;;4.18;3.78;;;;;;;36.78;29.68;100997.63;5053465;28;20478;-82
2023/09/09 09:17:54;;;;;;;3.42;3.22;;;;;;;36.97;30.08;101004.56;5056258;28;20487;-83
2023/09/09 09:20:31;;;;;;;3.53;3.30;;;;;;;36.37;29.84;101004.09;5031634;28;20175;-84
2023/09/09 09:23:13;;;;;;;3.00;2.90;;;;;;;36.87;29.47;100999.31;5053824;28;20040;-84
2023/09/09 09:25:48;;;;;;;5.97;3.42;;;;;;;37.20;29.31;100991.78;5056970;28;20052;-84
2023/09/09 09:28:16;;;;;;;6.55;4.25;;;;;;;35.85;30.62;100991.75;5034508;28;20503;-83
2023/09/09 09:30:44;;;;;;;3.80;3.50;;;;;;;36.02;30.99;100996.19;5036169;28;20485;-83
2023/09/09 09:33:15;;;;;;;3.55;3.25;;;;;;;36.18;30.70;100995.28;5055428;28;20381;-82
2023/09/09 09:35:41;;;;;;;3.50;3.22;;;;;;;35.92;31.43;100993.63;5036488;28;20131;-84
2023/09/09 09:38:12;;;;;;;3.88;3.40;;;;;;;36.37;30.11;100993.19;5037973;28;20049;-83
2023/09/09 09:40:40;;;;;;;5.22;3.63;;;;;;;36.94;29.31;100996.75;5058148;28;20167;-83
2023/09/09 09:43:23;;;;;;;3.92;3.63;;;;;;;37.58;28.09;100988.28;5039427;28;20090;-84
2023/09/09 09:45:50;;;;;;;4.80;3.25;;;;;;;37.36;28.85;100987.28;5049959;28;20119;-84
2023/09/09 09:48:28;;;;;;;4.75;3.28;;;;;;;36.44;26.82;100988.75;5035404;28;20091;-84
2023/09/09 09:50:54;;;;;;;3.17;2.92;;;;;;;37.14;27.79;100994.38;5065597;28;20126;-84
2023/09/09 09:53:22;;;;;;;3.50;3.20;;;;;;;36.99;26.46;100986.09;5054248;28;20053;-84
2023/09/09 09:55:52;;;;;;;3.95;3.47;;;;;;;37.65;25.29;100988.38;5056853;28;20455;-84
2023/09/09 09:58:22;;;;;;;3.20;2.90;;;;;;;38.02;25.03;100987.53;5033021;28;20041;-84
2023/09/09 10:00:53;;;;;;;4.32;3.40;;;;;;;38.35;25.48;100994.56;5048218;28;20068;-83
2023/09/09 10:03:22;;;;;;;3.65;3.45;;;;;;;38.66;25.62;100979.81;5017279;28;20045;-85
2023/09/09 10:05:53;;;;;;;3.28;3.00;;;;;;;39.19;25.40;100976.88;5054110;28;20059;-82
2023/09/09 10:08:39;;;;;;;4.20;3.45;;;;;;;39.29;23.71;100980.13;5044878;28;20159;-83
2023/09/09 10:11:10;;;;;;;2.70;2.60;;;;;;;39.47;23.38;100981.56;5014966;28;20064;-83
2023/09/09 10:13:44;;;;;;;3.00;2.90;;;;;;;39.23;22.94;100986.41;5032482;28;20072;-84
2023/09/09 10:16:13;;;;;;;5.97;3.15;;;;;;;38.21;24.33;100979.81;5018886;28;20144;-83
2023/09/09 10:18:45;;;;;;;5.15;2.92;;;;;;;36.94;24.98;100985.84;5020235;28;20049;-82
2023/09/09 10:21:13;;;;;;;3.50;3.20;;;;;;;36.69;25.96;100977.75;5015956;28;20049;-81
2023/09/09 10:23:41;;;;;;;4.03;2.78;;;;;;;36.73;25.63;100974.47;5040369;28;20284;-83
2023/09/09 10:26:08;;;;;;;3.58;3.10;;;;;;;36.99;25.98;100973.34;5048279;28;20052;-83
2023/09/09 10:28:36;;;;;;;3.50;2.92;;;;;;;37.32;26.13;100975.84;5008623;28;20435;-82
2023/09/09 10:31:04;;;;;;;5.20;3.20;;;;;;;38.26;25.32;100971.94;5030394;28;20048;-83
2023/09/09 10:33:32;;;;;;;3.00;2.83;;;;;;;38.41;25.19;100963.72;5027716;28;20088;-83
2023/09/09 10:35:59;;;;;;;4.22;3.45;;;;;;;38.24;24.85;100965.78;5029122;28;20072;-84
2023/09/09 10:38:27;;;;;;;4.38;3.78;;;;;;;37.98;24.15;100960.75;5029615;28;20125;-81
2023/09/09 10:40:54;;;;;;;3.85;3.65;;;;;;;37.14;24.95;100970.66;5017546;28;20543;-81
2023/09/09 10:43:21;;;;;;;4.63;3.15;;;;;;;37.27;24.85;100970.06;5022887;28;20582;-82
2023/09/09 10:45:51;;;;;;;3.80;3.30;;;;;;;36.42;25.44;100969.84;4998464;28;20069;-84
2023/09/09 10:48:21;;;;;;;5.63;3.40;;;;;;;36.84;24.94;100962.31;5014648;28;20416;-81
2023/09/09 10:50:53;;;;;;;3.65;3.40;;;;;;;37.87;24.04;100957.50;5020571;28;20566;-84
2023/09/09 10:53:24;;;;;;;4.70;3.63;;;;;;;38.76;23.06;100960.38;5012351;28;20071;-83
2023/09/09 10:56:00;;;;;;;3.00;2.80;;;;;;;37.28;24.22;100957.28;5011759;28;20054;-83
2023/09/09 10:58:42;;;;;;;3.15;2.95;;;;;;;36.80;25.10;100960.13;5022700;28;20053;-83
2023/09/09 11:01:09;;;;;;;5.40;3.28;;;;;;;37.52;24.65;100959.84;5031965;28;20141;-82
2023/09/09 11:03:45;;;;;;;3.78;3.50;;;;;;;37.07;24.18;100958.78;5015398;28;20057;-83
2023/09/09 11:06:31;;;;;;;2.90;2.70;;;;;;;37.18;23.80;100954.78;5030678;28;20057;-82
2023/09/09 11:09:01;;;;;;;2.83;2.70;;;;;;;37.58;22.78;100956.34;5025358;28;20053;-84
2023/09/09 11:11:37;;;;;;;3.22;3.03;;;;;;;39.10;22.17;100961.59;5014133;28;20100;-82
2023/09/09 11:14:11;;;;;;;3.58;3.13;;;;;;;39.85;21.37;100967.56;5024345;28;20042;-83
2023/09/09 11:16:43;;;;;;;4.10;3.10;;;;;;;38.10;22.30;100961.19;5015490;28;20156;-83
2023/09/09 11:19:19;;;;;;;3.28;3.08;;;;;;;39.24;21.77;100963.44;5034081;28;20080;-83
2023/09/09 11:21:50;;;;;;;2.78;2.67;;;;;;;39.34;21.34;100961.22;5013784;28;20047;-83
2023/09/09 11:24:18;;;;;;;5.68;3.15;;;;;;;39.59;21.32;100963.53;5029611;28;20046;-84
2023/09/09 11:26:50;;;;;;;4.30;3.33;;;;;;;39.72;20.95;100964.72;5012532;28;20045;-83
2023/09/09 11:29:21;;;;;;;3.63;3.05;;;;;;;39.28;21.32;100966.63;5007740;28;20057;-83
2023/09/09 11:31:50;;;;;;;3.33;3.13;;;;;;;38.76;21.48;100969.47;5027242;28;20052;-83